Wabush, Canada
Current Conditions -  °F | °C
As of 1:37 PM on Friday 26 Dec 2014 (Local Time) from CYWK Reporting Station
Light Snow Light Snow  
Wind Chill:   Ceiling: 2000
Heat Index: 21°   Visibility: 2mi
Dew Point: 18°   Wind: 17mph
Humidity: 86%   Direction: 260°W
Pressure: 28.93"   Gusts: 28mph
Location:  52.9°N, 66.87°W
Report Text: CYWK 261737Z 26015G24KT 2SM -SN BLSN OVC020 M06/M08 A2893 RMK SC8 SLP826
Loading
Personal Weather Stations






























Interactive Weather Map New forecast layout! Learn more

10-Day Weather Forecast

Advertisements
Track Severe Weather on mobile